x

South Santa Rosa Is. Ca (46069) Wave Buoy

9:50am - Sun 1st Feb 2015 All times are PST. -8 hours from GMT.

  • Sig Wave height 5.2ft
  • Peak Period 14s
  • Average Period 7s
  • Wind
    9mph, 11mph gusts
  • Sea Temp 61°f
  • 空気 Temp 60°f
  • Sea Pressure 1019.1mb
  • South Santa Rosa Is. Ca
  • South Santa Rosa Is. Ca

More Historic Weather Station data

Upgrade to MSW Pro to gain access to the past 30 days of data for over 8000 Wavebouys and Weather Stations around the globe.

Join Pro

Comparision Forecast

View Surf forecast
   
Sun 02/01 9:50am 5ft 14s 7s 9 11 mph 1019.1mb 61f 60f
8:50am 5ft 14s 7s 11 13 mph 1018.4mb 60f 61f
7:50am 6ft 12s 7s 11 16 mph 1017.8mb 60f 61f
6:50am 5.5ft 13s 6s 13 16 mph 1017.2mb 60f 60f
5:50am 5.5ft 14s 6s 16 20 mph 1016.5mb 60f 60f
4:50am 6ft 14s 6s 18 22 mph 1016.2mb 60f 60f
3:50am 6ft 13s 6s 18 22 mph 1016.1mb 60f 60f
2:50am 6.5ft 14s 7s 18 22 mph 1016.1mb 60f 60f
1:50am 6.5ft 14s 8s 18 20 mph 1016.2mb 60f 60f
12:50am 6.5ft 14s 8s 11 13 mph 1016.2mb 60f 61f
Sat 01/31 11:50pm 7.5ft 14s 8s 11 16 mph 1016.4mb 60f 60f
10:50pm 6ft 13s 7s 16 18 mph 1016.1mb 60f 60f
9:50pm 7ft 14s 7s 16 20 mph 1015.7mb 60f 60f
8:50pm 6ft 14s 7s 18 22 mph 1015.1mb 60f 60f
7:50pm 6.5ft 15s 8s 16 18 mph 1014.5mb 60f 60f
6:50pm 6ft 15s 8s 9 13 mph 1013.9mb 60f 60f
5:50pm 6.5ft 15s 8s 9 11 mph 1013.3mb 60f 60f
4:50pm 6.5ft 14s 7s 9 11 mph 1012.6mb 60f 60f
3:50pm 7ft 14s 7s 16 18 mph 1012.5mb 60f 60f
2:50pm 7ft 14s 7s 16 20 mph 1012.6mb 60f 59f
1:50pm 7ft 15s 7s 13 18 mph 1012.7mb 60f 59f
12:50pm 6.5ft 9s 7s 11 13 mph 1012.7mb 60f 59f
10:50am 7ft 14s 7s 16 18 mph 1013.4mb 60f 59f
9:50am 7ft 15s 6s 16 18 mph 1012.9mb 60f 59f
8:50am 7ft 15s 6s 18 22 mph 1012mb 60f 58f
7:50am 8.5ft 15s 7s 20 25 mph 1011.1mb 59f 58f
6:50am 7ft 15s 6s 22 27 mph 1010.4mb 59f 59f
5:50am 7ft 15s 6s 22 27 mph 1010.2mb 59f 59f
4:50am 8ft 15s 6s 22 27 mph 1009.7mb 59f 58f
3:50am 8ft 16s 6s 22 29 mph 1009.6mb 59f 58f
2:50am 8.5ft 15s 6s 22 29 mph 1009.6mb 60f 58f
1:50am 8.5ft 15s 7s 25 29 mph 1009.9mb 60f 58f
12:50am 8ft 16s 6s 20 25 mph 1010.4mb 60f 58f
Fri 01/30 11:50pm 8.5ft 8s 6s 22 29 mph 1010.8mb 60f 58f
10:50pm 8.5ft 8s 6s 22 27 mph 1011.3mb 60f 58f
9:50pm 8ft 15s 6s 22 27 mph 1011.6mb 60f 58f
8:50pm 9ft 16s 6s 22 27 mph 1011.5mb 60f 58f
7:50pm 7.5ft 16s 6s 22 27 mph 1011.3mb 60f 58f
6:50pm 8ft 8s 6s 25 27 mph 1010.8mb 60f 58f
5:50pm 8ft 8s 6s 25 31 mph 1010.9mb 60f 58f
4:50pm 8ft 8s 6s 22 27 mph 1011mb 61f 59f
3:50pm 8ft 16s 6s 22 27 mph 1010.9mb 61f 59f
2:50pm 7ft 8s 6s 22 27 mph 1011mb 61f 59f
1:50pm 7ft 17s 6s 22 25 mph 1011.3mb 61f 59f
12:50pm 6.5ft 8s 6s 18 22 mph 1012.3mb 61f 59f
11:50am 7ft 16s 6s 20 25 mph 1013mb 61f 59f
10:50am 8ft 16s 7s 20 25 mph 1013.7mb 60f 59f
9:50am 7.5ft 16s 7s 20 25 mph 1013.7mb 60f 59f
8:50am 6.5ft 16s 6s 18 20 mph 1013.7mb 60f 59f
7:50am 6.5ft 16s 7s 16 18 mph 1013.6mb 60f 59f
6:50am 6.5ft 17s 7s 13 16 mph 1013.7mb 60f 59f
5:50am 6.5ft 17s 7s 13 16 mph 1013.7mb 60f 59f
4:50am 6.5ft 17s 7s 13 16 mph 1013.7mb 60f 59f
3:50am 6ft 17s 7s 13 18 mph 1013.8mb 60f 59f
2:50am 6ft 17s 7s 11 13 mph 1014.2mb 60f 59f
1:50am 6.5ft 17s 8s 13 16 mph 1014.5mb 60f 59f
12:50am 6ft 17s 8s 11 16 mph 1015mb 60f 60f
Thu 01/29 11:50pm 6.5ft 17s 8s 13
mph
1015.5mb 60f 60f
10:50pm 6.5ft 17s 8s 9 11 mph 1015.7mb 60f 60f
9:50pm 6ft 19s 7s 9 11 mph 1016.1mb 60f 60f
8:50pm 5.5ft 19s 7s 13 16 mph 1016mb 60f 60f
7:50pm 5.5ft 17s 7s 13 16 mph 1015.7mb 60f 60f
6:50pm 5ft 11s 6s 16 20 mph 1015.3mb 61f 60f
5:50pm 5ft 17s 6s 16 18 mph 1015.1mb 61f 60f
4:50pm 5ft 13s 6s 13 18 mph 1015mb 61f 61f
3:50pm 4.5ft 13s 6s 18 20 mph 1014.9mb 61f 60f
2:50pm 5ft 19s 7s 18 22 mph 1014.8mb 61f 61f
1:50pm 5.5ft 11s  -  13 16 mph 1015mb 61f 61f
12:50pm 4.5ft 19s 8s 13 16 mph 1015.8mb 61f 61f
11:50am 5ft 13s 9s 11 16 mph 1016.8mb 61f 61f
10:50am 4.5ft 13s 8s 9 13 mph 1017.6mb 61f 61f
9:50am 5ft 13s 10s 11 13 mph 1017.8mb 61f 61f
8:50am 4.5ft 12s 9s 9 11 mph 1017.4mb 61f 61f
7:50am 4.5ft 12s 10s 7 9 mph 1017mb 61f 62f
6:50am 4.5ft 13s 9s 9 11 mph 1016.3mb 61f 61f
5:50am 5ft 13s 10s 9
mph
1016mb 61f 61f
4:50am 4.5ft 12s 10s 11 13 mph 1016.1mb 61f 61f
3:50am 5ft 13s 10s 7 9 mph 1016.5mb 61f 62f
2:50am 5ft 13s 10s 9
mph
1016.9mb 61f 62f
1:50am 5ft 12s 10s 7
mph
1017.2mb 61f 62f
12:50am 4.5ft 12s 10s 4
mph
1017.6mb 61f 61f
Wed 01/28 11:50pm 5ft 13s 10s 9 11 mph 1017.8mb 61f 61f
10:50pm 5ft 12s 11s 9 11 mph 1018.3mb 61f 61f
9:50pm 5.5ft 14s 11s 9 11 mph 1018.4mb 61f 61f
8:50pm 5ft 14s 11s 9 11 mph 1018.6mb 60f 61f
7:50pm 5ft 14s 11s 4 7 mph 1018.8mb 60f 61f
6:50pm 5ft 13s 11s 7
mph
1018.3mb 60f 61f